Terminal Aerodrome Forecast
Issued by NWS

Home | Current Version | Previous Version | Text Only | Print | Product List | Glossary On
Versions: 1 2 3 4 5 6 7 8 9 10 11 12 13 14 15 16 17
000
FTUS43 KFGF 251808 AAB
TAFBJI
TAF AMD
KBJI 251808Z 2518/2618 27015G23KT P6SM BKN035
     FM260000 26012KT P6SM SCT015
     FM260200 23007KT P6SM FEW200=

USA.gov is the U.S. government's official web portal to all federal, state and local government web resources and services.